N6403W PACV-PAEN
Flight info
| Callsign | N6403W |
|---|---|
| Flight time | N/A |
| Altitude | 20000 |
| Route | JOH MURYY ROJAR |
| Aircraft | PA46/L-VGD/C |
Departure
| Time | N/A |
|---|---|
| Airport | Merle K (Mudhole) Smith Airport (PACV) |
Arrival
| Time | 2026-04-28 03:13 |
|---|---|
| Airport | Kenai Municipal Airport (PAEN) |
| Time | Latitude | Longitude | Altitude | Speed | Heading |
|---|---|---|---|---|---|
| 2026-04-28 02:33 | 60.46463 | -146.45140 | 16477 ft | 224 kts | 272° |
| 2026-04-28 02:33 | 60.46811 | -146.48257 | 16477 ft | 228 kts | 272° |
| 2026-04-28 02:33 | 60.47161 | -146.51418 | 16475 ft | 231 kts | 272° |
| 2026-04-28 02:33 | 60.47514 | -146.54609 | 16478 ft | 233 kts | 272° |
| 2026-04-28 02:34 | 60.47830 | -146.57473 | 16477 ft | 234 kts | 272° |
| 2026-04-28 02:34 | 60.48109 | -146.60691 | 16472 ft | 227 kts | 264° |
| 2026-04-28 02:34 | 60.48126 | -146.63854 | 16472 ft | 224 kts | 261° |
| 2026-04-28 02:34 | 60.48153 | -146.67016 | 16472 ft | 224 kts | 261° |
| 2026-04-28 02:35 | 60.48185 | -146.70132 | 16473 ft | 224 kts | 261° |
| 2026-04-28 02:35 | 60.48210 | -146.73290 | 16468 ft | 224 kts | 261° |
| 2026-04-28 02:35 | 60.48232 | -146.76453 | 16465 ft | 224 kts | 261° |
| 2026-04-28 02:35 | 60.48255 | -146.79623 | 16466 ft | 225 kts | 261° |
| 2026-04-28 02:36 | 60.48277 | -146.82796 | 16462 ft | 225 kts | 261° |
| 2026-04-28 02:36 | 60.48303 | -146.85880 | 16846 ft | 208 kts | 260° |
| 2026-04-28 02:36 | 60.48329 | -146.88626 | 17570 ft | 183 kts | 258° |
| 2026-04-28 02:36 | 60.48334 | -146.91178 | 17934 ft | 182 kts | 257° |
| 2026-04-28 02:37 | 60.48340 | -146.93758 | 18225 ft | 183 kts | 258° |
| 2026-04-28 02:37 | 60.48355 | -146.96348 | 18513 ft | 184 kts | 258° |
| 2026-04-28 02:37 | 60.48371 | -146.98944 | 18775 ft | 185 kts | 258° |
| 2026-04-28 02:37 | 60.48386 | -147.01553 | 19037 ft | 185 kts | 258° |
| 2026-04-28 02:38 | 60.48400 | -147.04164 | 19304 ft | 186 kts | 258° |
| 2026-04-28 02:38 | 60.48413 | -147.06759 | 19563 ft | 186 kts | 258° |
| 2026-04-28 02:38 | 60.48427 | -147.09392 | 19829 ft | 187 kts | 258° |
| 2026-04-28 02:38 | 60.48436 | -147.12078 | 19937 ft | 196 kts | 258° |
| 2026-04-28 02:39 | 60.48446 | -147.14919 | 19946 ft | 207 kts | 259° |
| 2026-04-28 02:39 | 60.48462 | -147.17900 | 19942 ft | 215 kts | 259° |
| 2026-04-28 02:39 | 60.48479 | -147.20979 | 19939 ft | 221 kts | 259° |
| 2026-04-28 02:39 | 60.48494 | -147.24119 | 19940 ft | 225 kts | 260° |
| 2026-04-28 02:40 | 60.48507 | -147.27311 | 19937 ft | 227 kts | 260° |
| 2026-04-28 02:40 | 60.48518 | -147.30531 | 19935 ft | 229 kts | 260° |
| 2026-04-28 02:40 | 60.48529 | -147.33768 | 19935 ft | 231 kts | 260° |
| 2026-04-28 02:40 | 60.48539 | -147.37031 | 19928 ft | 232 kts | 260° |
| 2026-04-28 02:41 | 60.48548 | -147.40305 | 19923 ft | 232 kts | 260° |
| 2026-04-28 02:41 | 60.48557 | -147.43585 | 19927 ft | 233 kts | 260° |
| 2026-04-28 02:41 | 60.48564 | -147.46874 | 19924 ft | 233 kts | 259° |
| 2026-04-28 02:41 | 60.48570 | -147.50121 | 19919 ft | 234 kts | 259° |
| 2026-04-28 02:42 | 60.48576 | -147.53421 | 19918 ft | 234 kts | 259° |
| 2026-04-28 02:42 | 60.48581 | -147.56728 | 19916 ft | 234 kts | 259° |
| 2026-04-28 02:42 | 60.48580 | -147.60037 | 19912 ft | 234 kts | 259° |
| 2026-04-28 02:42 | 60.48580 | -147.63350 | 19909 ft | 235 kts | 259° |
| 2026-04-28 02:43 | 60.48584 | -147.66666 | 19906 ft | 235 kts | 259° |
| 2026-04-28 02:43 | 60.48586 | -147.69992 | 19909 ft | 235 kts | 259° |
| 2026-04-28 02:43 | 60.48588 | -147.73309 | 19906 ft | 235 kts | 259° |
| 2026-04-28 02:43 | 60.48587 | -147.76635 | 19905 ft | 236 kts | 259° |
| 2026-04-28 02:44 | 60.48586 | -147.79961 | 19905 ft | 236 kts | 259° |
| 2026-04-28 02:44 | 60.48584 | -147.83288 | 19901 ft | 236 kts | 259° |
| 2026-04-28 02:44 | 60.48582 | -147.86618 | 19902 ft | 236 kts | 259° |
| 2026-04-28 02:44 | 60.48579 | -147.89949 | 19899 ft | 236 kts | 259° |
| 2026-04-28 02:45 | 60.48574 | -147.93282 | 19898 ft | 236 kts | 259° |
| 2026-04-28 02:45 | 60.48569 | -147.96574 | 19900 ft | 236 kts | 259° |
| 2026-04-28 02:45 | 60.48563 | -147.99956 | 19889 ft | 237 kts | 258° |
| 2026-04-28 02:45 | 60.48557 | -148.03246 | 19884 ft | 236 kts | 259° |
| 2026-04-28 02:46 | 60.48551 | -148.06557 | 19890 ft | 235 kts | 259° |
| 2026-04-28 02:46 | 60.48542 | -148.09859 | 19890 ft | 234 kts | 258° |
| 2026-04-28 02:46 | 60.48531 | -148.13176 | 19887 ft | 236 kts | 258° |
| 2026-04-28 02:46 | 60.48521 | -148.16504 | 19886 ft | 236 kts | 258° |
| 2026-04-28 02:47 | 60.48511 | -148.19842 | 19888 ft | 237 kts | 258° |
| 2026-04-28 02:47 | 60.48499 | -148.23191 | 19886 ft | 239 kts | 258° |
| 2026-04-28 02:47 | 60.48486 | -148.26571 | 19884 ft | 239 kts | 258° |
| 2026-04-28 02:47 | 60.48474 | -148.29931 | 19888 ft | 238 kts | 258° |
| 2026-04-28 02:48 | 60.48459 | -148.33293 | 19882 ft | 239 kts | 258° |
| 2026-04-28 02:48 | 60.48443 | -148.36670 | 19879 ft | 240 kts | 258° |
| 2026-04-28 02:48 | 60.48427 | -148.40074 | 19878 ft | 241 kts | 258° |
| 2026-04-28 02:48 | 60.48411 | -148.43437 | 19876 ft | 242 kts | 258° |
| 2026-04-28 02:49 | 60.48394 | -148.46882 | 19876 ft | 241 kts | 258° |
| 2026-04-28 02:49 | 60.48381 | -148.50281 | 19872 ft | 241 kts | 258° |
| 2026-04-28 02:49 | 60.48350 | -148.53656 | 19865 ft | 243 kts | 258° |
| 2026-04-28 02:49 | 60.48331 | -148.57120 | 19866 ft | 242 kts | 258° |
| 2026-04-28 02:50 | 60.48314 | -148.60522 | 19861 ft | 240 kts | 258° |
| 2026-04-28 02:50 | 60.48292 | -148.63865 | 19862 ft | 240 kts | 258° |
| 2026-04-28 02:50 | 60.48268 | -148.67144 | 19862 ft | 239 kts | 258° |
| 2026-04-28 02:50 | 60.48243 | -148.70531 | 19854 ft | 241 kts | 258° |
| 2026-04-28 02:51 | 60.48219 | -148.73929 | 19859 ft | 242 kts | 258° |
| 2026-04-28 02:51 | 60.48193 | -148.77339 | 19852 ft | 242 kts | 258° |
| 2026-04-28 02:51 | 60.48168 | -148.80750 | 19845 ft | 241 kts | 258° |
| 2026-04-28 02:51 | 60.48142 | -148.84134 | 19844 ft | 239 kts | 257° |
| 2026-04-28 02:52 | 60.48112 | -148.87497 | 19841 ft | 239 kts | 257° |
| 2026-04-28 02:52 | 60.48089 | -148.90881 | 19837 ft | 240 kts | 258° |
| 2026-04-28 02:52 | 60.48055 | -148.94252 | 19826 ft | 237 kts | 257° |
| 2026-04-28 02:52 | 60.48020 | -148.97584 | 19829 ft | 237 kts | 257° |
| 2026-04-28 02:53 | 60.47989 | -149.00935 | 19829 ft | 238 kts | 257° |
| 2026-04-28 02:53 | 60.47959 | -149.04298 | 19826 ft | 239 kts | 257° |
| 2026-04-28 02:53 | 60.48026 | -149.07662 | 19824 ft | 247 kts | 265° |
| 2026-04-28 02:53 | 60.48218 | -149.11136 | 19805 ft | 248 kts | 264° |
| 2026-04-28 02:54 | 60.48384 | -149.14620 | 19808 ft | 249 kts | 264° |
| 2026-04-28 02:54 | 60.48547 | -149.18099 | 19807 ft | 249 kts | 264° |
| 2026-04-28 02:54 | 60.48721 | -149.21612 | 19803 ft | 251 kts | 265° |
| 2026-04-28 02:54 | 60.48895 | -149.25152 | 19797 ft | 253 kts | 265° |
| 2026-04-28 02:55 | 60.49066 | -149.28733 | 19641 ft | 257 kts | 264° |
| 2026-04-28 02:55 | 60.49245 | -149.32284 | 19328 ft | 250 kts | 264° |
| 2026-04-28 02:55 | 60.49413 | -149.35755 | 19014 ft | 245 kts | 264° |
| 2026-04-28 02:55 | 60.49565 | -149.38987 | 18725 ft | 241 kts | 264° |
| 2026-04-28 02:56 | 60.49722 | -149.42328 | 18425 ft | 234 kts | 263° |
| 2026-04-28 02:56 | 60.49877 | -149.45570 | 18173 ft | 228 kts | 263° |
| 2026-04-28 02:56 | 60.49974 | -149.48730 | 18032 ft | 222 kts | 261° |
| 2026-04-28 02:56 | 60.50125 | -149.51930 | 17833 ft | 235 kts | 265° |
| 2026-04-28 02:57 | 60.50320 | -149.55279 | 17545 ft | 242 kts | 265° |
| 2026-04-28 02:57 | 60.50482 | -149.58700 | 17294 ft | 246 kts | 264° |
| 2026-04-28 02:57 | 60.50636 | -149.62149 | 17030 ft | 244 kts | 265° |
| 2026-04-28 02:57 | 60.50788 | -149.65564 | 16765 ft | 243 kts | 265° |
| 2026-04-28 02:58 | 60.50945 | -149.68932 | 16506 ft | 242 kts | 264° |
| 2026-04-28 02:58 | 60.51048 | -149.72339 | 16259 ft | 241 kts | 263° |
| 2026-04-28 02:58 | 60.51172 | -149.75727 | 16047 ft | 239 kts | 265° |
| 2026-04-28 02:58 | 60.51332 | -149.79065 | 15910 ft | 237 kts | 266° |
| 2026-04-28 02:59 | 60.51486 | -149.82391 | 15780 ft | 235 kts | 265° |
| 2026-04-28 02:59 | 60.51631 | -149.85672 | 15629 ft | 233 kts | 265° |
| 2026-04-28 02:59 | 60.51773 | -149.88957 | 15366 ft | 235 kts | 266° |
| 2026-04-28 02:59 | 60.51919 | -149.92277 | 15072 ft | 236 kts | 266° |
| 2026-04-28 03:00 | 60.52067 | -149.95577 | 14767 ft | 233 kts | 266° |
| 2026-04-28 03:00 | 60.52211 | -149.98819 | 14474 ft | 228 kts | 266° |
| 2026-04-28 03:00 | 60.52347 | -150.02018 | 14174 ft | 226 kts | 267° |
| 2026-04-28 03:00 | 60.52483 | -150.05191 | 13886 ft | 225 kts | 267° |
| 2026-04-28 03:01 | 60.52617 | -150.08333 | 13595 ft | 221 kts | 267° |
| 2026-04-28 03:01 | 60.52748 | -150.11426 | 13294 ft | 219 kts | 267° |
| 2026-04-28 03:01 | 60.52878 | -150.14487 | 13009 ft | 216 kts | 267° |
| 2026-04-28 03:01 | 60.53006 | -150.17520 | 12730 ft | 215 kts | 267° |
| 2026-04-28 03:02 | 60.53134 | -150.20550 | 12461 ft | 215 kts | 266° |
| 2026-04-28 03:02 | 60.53255 | -150.23549 | 12169 ft | 216 kts | 266° |
| 2026-04-28 03:02 | 60.53381 | -150.26570 | 11907 ft | 214 kts | 266° |
| 2026-04-28 03:02 | 60.53505 | -150.29601 | 11636 ft | 216 kts | 266° |
| 2026-04-28 03:03 | 60.53630 | -150.32664 | 11353 ft | 218 kts | 266° |
| 2026-04-28 03:03 | 60.53757 | -150.35739 | 11076 ft | 218 kts | 266° |
| 2026-04-28 03:03 | 60.53882 | -150.38814 | 10799 ft | 218 kts | 266° |
| 2026-04-28 03:03 | 60.54005 | -150.41888 | 10517 ft | 218 kts | 266° |
| 2026-04-28 03:04 | 60.54128 | -150.44957 | 10235 ft | 218 kts | 266° |
| 2026-04-28 03:04 | 60.54250 | -150.48019 | 9953 ft | 217 kts | 266° |
| 2026-04-28 03:04 | 60.54371 | -150.51061 | 9678 ft | 215 kts | 265° |
| 2026-04-28 03:04 | 60.54488 | -150.54080 | 9390 ft | 214 kts | 265° |
| 2026-04-28 03:05 | 60.54607 | -150.57086 | 9096 ft | 212 kts | 265° |
| 2026-04-28 03:05 | 60.54723 | -150.60086 | 8692 ft | 214 kts | 265° |
| 2026-04-28 03:05 | 60.54839 | -150.63117 | 8299 ft | 216 kts | 265° |
| 2026-04-28 03:05 | 60.54956 | -150.66166 | 7910 ft | 217 kts | 266° |
| 2026-04-28 03:06 | 60.55074 | -150.69244 | 7522 ft | 219 kts | 266° |
| 2026-04-28 03:06 | 60.55190 | -150.72298 | 7145 ft | 220 kts | 266° |
| 2026-04-28 03:06 | 60.55302 | -150.75403 | 6765 ft | 221 kts | 266° |
| 2026-04-28 03:06 | 60.55422 | -150.78531 | 6388 ft | 223 kts | 267° |
| 2026-04-28 03:07 | 60.55558 | -150.81676 | 6010 ft | 223 kts | 268° |
| 2026-04-28 03:07 | 60.55689 | -150.84801 | 5609 ft | 219 kts | 265° |
| 2026-04-28 03:07 | 60.55446 | -150.87739 | 5206 ft | 209 kts | 250° |
| 2026-04-28 03:07 | 60.55187 | -150.90675 | 4790 ft | 212 kts | 255° |
| 2026-04-28 03:08 | 60.54941 | -150.93617 | 4506 ft | 208 kts | 254° |
| 2026-04-28 03:08 | 60.54693 | -150.96471 | 4266 ft | 204 kts | 254° |
| 2026-04-28 03:08 | 60.54440 | -150.99292 | 4011 ft | 202 kts | 254° |
| 2026-04-28 03:08 | 60.54178 | -151.02101 | 3741 ft | 203 kts | 254° |
| 2026-04-28 03:09 | 60.53904 | -151.04912 | 3477 ft | 203 kts | 254° |
| 2026-04-28 03:09 | 60.53617 | -151.07729 | 3209 ft | 203 kts | 254° |
| 2026-04-28 03:09 | 60.53254 | -151.10486 | 2927 ft | 201 kts | 246° |
| 2026-04-28 03:09 | 60.52737 | -151.13125 | 2669 ft | 201 kts | 244° |
| 2026-04-28 03:10 | 60.52205 | -151.15740 | 2404 ft | 200 kts | 244° |
| 2026-04-28 03:10 | 60.51668 | -151.18302 | 2302 ft | 191 kts | 244° |
| 2026-04-28 03:10 | 60.51172 | -151.20695 | 2190 ft | 181 kts | 246° |
| 2026-04-28 03:10 | 60.50787 | -151.23095 | 1977 ft | 178 kts | 252° |
| 2026-04-28 03:11 | 60.50613 | -151.25516 | 1844 ft | 172 kts | 275° |
| 2026-04-28 03:11 | 60.51164 | -151.27533 | 1782 ft | 158 kts | 313° |
| 2026-04-28 03:11 | 60.51881 | -151.29237 | 1320 ft | 160 kts | 313° |
| 2026-04-28 03:11 | 60.52688 | -151.30205 | 1443 ft | 115 kts | 2° |
| 2026-04-28 03:12 | 60.53353 | -151.29638 | 1081 ft | 103 kts | 35° |
| 2026-04-28 03:12 | 60.53936 | -151.28830 | 833 ft | 101 kts | 39° |
| 2026-04-28 03:12 | 60.54530 | -151.28043 | 656 ft | 103 kts | 33° |
| 2026-04-28 03:12 | 60.55136 | -151.27277 | 483 ft | 100 kts | 35° |
| 2026-04-28 03:13 | 60.55739 | -151.26547 | 285 ft | 98 kts | 33° |
| 2026-04-28 03:13 | 60.56314 | -151.25830 | 145 ft | 95 kts | 34° |
| 2026-04-28 03:13 | 60.56827 | -151.25210 | 96 ft | 74 kts | 31° |
| 2026-04-28 03:13 | 60.57183 | -151.24770 | 97 ft | 44 kts | 31° |
| 2026-04-28 03:14 | 60.57387 | -151.24523 | 99 ft | 22 kts | 31° |
| 2026-04-28 03:14 | 60.57486 | -151.24337 | 100 ft | 20 kts | 86° |
| 2026-04-28 03:14 | 60.57428 | -151.24164 | 100 ft | 2 kts | 158° |
| 2026-04-28 03:15 | 60.57425 | -151.24161 | 100 ft | 2 kts | 159° |
| 2026-04-28 03:15 | 60.57375 | -151.24155 | 100 ft | 12 kts | 192° |
| 2026-04-28 03:15 | 60.57272 | -151.24266 | 99 ft | 20 kts | 208° |
| 2026-04-28 03:15 | 60.57154 | -151.24416 | 98 ft | 20 kts | 212° |
| 2026-04-28 03:16 | 60.57035 | -151.24562 | 98 ft | 20 kts | 210° |
| 2026-04-28 03:16 | 60.56900 | -151.24562 | 97 ft | 20 kts | 168° |
| 2026-04-28 03:16 | 60.56769 | -151.24621 | 97 ft | 20 kts | 192° |
| 2026-04-28 03:16 | 60.56679 | -151.24598 | 97 ft | 10 kts | 128° |
| 2026-04-28 03:17 | 60.56664 | -151.24549 | 97 ft | 0 kts | 122° |
| 2026-04-28 03:31 | 60.56663 | -151.24547 | 97 ft | 1 kts | 108° |
| 2026-04-28 03:31 | 60.56677 | -151.24567 | 97 ft | 8 kts | 296° |
| 2026-04-28 03:31 | 60.56693 | -151.24720 | 97 ft | 15 kts | 262° |